Aviation Digital Data Service (ADDS)

Output produced by METARs form (1210 UTC 24 March 2017)
found at http://www.aviationweather.gov/adds/metars/
 
GUCY 241200Z 30006KT 6000 HZ NSC 31/18 Q1012 NOSIG
TAF GUCY 241100Z 2412/2518 27008KT CAVOK 
     BECMG 2423/2502 34006KT 7000 NSC 
     TEMPO 2505/2509 VRB02KT 3000 BR FEW015 
     TEMPO 2509/2512 06006KT 5000 HZ NSC